sensor_id;sensor_type;location;lat;lon;timestamp;temperature;humidity
19365;DHT22;9818;48.382;10.850;2023-07-13T00:01:13;19.10;99.90
19365;DHT22;9818;48.382;10.850;2023-07-13T00:03:41;19.10;99.90
19365;DHT22;9818;48.382;10.850;2023-07-13T00:06:10;19.00;99.90
19365;DHT22;9818;48.382;10.850;2023-07-13T00:08:39;19.00;99.90
19365;DHT22;9818;48.382;10.850;2023-07-13T00:11:10;19.00;99.90
19365;DHT22;9818;48.382;10.850;2023-07-13T00:13:39;19.00;99.90
19365;DHT22;9818;48.382;10.850;2023-07-13T00:16:08;19.00;99.90
19365;DHT22;9818;48.382;10.850;2023-07-13T00:18:37;19.10;99.90
19365;DHT22;9818;48.382;10.850;2023-07-13T00:21:06;19.10;99.90
19365;DHT22;9818;48.382;10.850;2023-07-13T00:23:36;19.10;99.90
19365;DHT22;9818;48.382;10.850;2023-07-13T00:26:07;19.10;99.90
19365;DHT22;9818;48.382;10.850;2023-07-13T00:28:39;19.10;99.90
19365;DHT22;9818;48.382;10.850;2023-07-13T00:31:09;19.10;99.90
19365;DHT22;9818;48.382;10.850;2023-07-13T00:33:40;19.10;99.90
19365;DHT22;9818;48.382;10.850;2023-07-13T00:36:09;19.00;99.90
19365;DHT22;9818;48.382;10.850;2023-07-13T00:38:38;19.00;99.90
19365;DHT22;9818;48.382;10.850;2023-07-13T00:41:07;19.00;99.90
19365;DHT22;9818;48.382;10.850;2023-07-13T00:43:38;19.10;99.90
19365;DHT22;9818;48.382;10.850;2023-07-13T00:46:13;19.00;99.90
19365;DHT22;9818;48.382;10.850;2023-07-13T00:48:43;19.00;99.90
19365;DHT22;9818;48.382;10.850;2023-07-13T00:51:13;19.00;99.90
19365;DHT22;9818;48.382;10.850;2023-07-13T00:53:43;19.00;99.90
19365;DHT22;9818;48.382;10.850;2023-07-13T00:56:11;19.00;99.90
19365;DHT22;9818;48.382;10.850;2023-07-13T00:58:43;19.00;99.90
19365;DHT22;9818;48.382;10.850;2023-07-13T01:01:12;19.00;99.90
19365;DHT22;9818;48.382;10.850;2023-07-13T01:03:41;19.00;99.90
19365;DHT22;9818;48.382;10.850;2023-07-13T01:06:10;19.00;99.90
19365;DHT22;9818;48.382;10.850;2023-07-13T01:08:39;19.00;99.90
19365;DHT22;9818;48.382;10.850;2023-07-13T01:11:08;19.00;99.90
19365;DHT22;9818;48.382;10.850;2023-07-13T01:13:37;19.00;99.90
19365;DHT22;9818;48.382;10.850;2023-07-13T01:16:17;19.00;99.90
19365;DHT22;9818;48.382;10.850;2023-07-13T01:18:47;19.10;99.90
19365;DHT22;9818;48.382;10.850;2023-07-13T01:21:19;19.00;99.90
19365;DHT22;9818;48.382;10.850;2023-07-13T01:23:47;18.90;99.90
19365;DHT22;9818;48.382;10.850;2023-07-13T01:26:16;18.90;99.90
19365;DHT22;9818;48.382;10.850;2023-07-13T01:28:45;19.00;99.90
19365;DHT22;9818;48.382;10.850;2023-07-13T01:31:14;18.90;99.90
19365;DHT22;9818;48.382;10.850;2023-07-13T01:33:42;18.90;99.90
19365;DHT22;9818;48.382;10.850;2023-07-13T01:36:11;18.90;99.90
19365;DHT22;9818;48.382;10.850;2023-07-13T01:38:42;18.90;99.90
19365;DHT22;9818;48.382;10.850;2023-07-13T01:41:11;19.00;99.90
19365;DHT22;9818;48.382;10.850;2023-07-13T01:43:40;18.90;99.90
19365;DHT22;9818;48.382;10.850;2023-07-13T01:46:09;18.90;99.90
19365;DHT22;9818;48.382;10.850;2023-07-13T01:48:37;18.90;99.90
19365;DHT22;9818;48.382;10.850;2023-07-13T01:51:06;18.90;99.90
19365;DHT22;9818;48.382;10.850;2023-07-13T01:53:35;18.90;99.90
19365;DHT22;9818;48.382;10.850;2023-07-13T01:56:06;18.90;99.90
19365;DHT22;9818;48.382;10.850;2023-07-13T01:58:34;18.90;99.90
19365;DHT22;9818;48.382;10.850;2023-07-13T02:01:03;18.90;99.90
19365;DHT22;9818;48.382;10.850;2023-07-13T02:03:32;18.90;99.90
19365;DHT22;9818;48.382;10.850;2023-07-13T02:06:01;18.90;99.90
19365;DHT22;9818;48.382;10.850;2023-07-13T02:08:30;18.90;99.90
19365;DHT22;9818;48.382;10.850;2023-07-13T02:10:59;18.90;99.90
19365;DHT22;9818;48.382;10.850;2023-07-13T02:13:30;18.90;99.90
19365;DHT22;9818;48.382;10.850;2023-07-13T02:15:59;18.90;99.90
19365;DHT22;9818;48.382;10.850;2023-07-13T02:18:27;18.90;99.90
19365;DHT22;9818;48.382;10.850;2023-07-13T02:20:56;18.90;99.90
19365;DHT22;9818;48.382;10.850;2023-07-13T02:23:25;18.90;99.90
19365;DHT22;9818;48.382;10.850;2023-07-13T02:25:55;18.90;99.90
19365;DHT22;9818;48.382;10.850;2023-07-13T02:28:24;18.90;99.90
19365;DHT22;9818;48.382;10.850;2023-07-13T02:31:03;18.90;99.90
19365;DHT22;9818;48.382;10.850;2023-07-13T02:33:32;18.90;99.90
19365;DHT22;9818;48.382;10.850;2023-07-13T02:36:01;18.90;99.90
19365;DHT22;9818;48.382;10.850;2023-07-13T02:38:31;18.90;99.90
19365;DHT22;9818;48.382;10.850;2023-07-13T02:41:01;18.90;99.90
19365;DHT22;9818;48.382;10.850;2023-07-13T02:43:30;18.90;99.90
19365;DHT22;9818;48.382;10.850;2023-07-13T02:46:02;18.80;99.90
19365;DHT22;9818;48.382;10.850;2023-07-13T02:48:32;18.80;99.90
19365;DHT22;9818;48.382;10.850;2023-07-13T02:51:01;18.80;99.90
19365;DHT22;9818;48.382;10.850;2023-07-13T02:53:30;18.80;99.90
19365;DHT22;9818;48.382;10.850;2023-07-13T02:55:59;18.80;99.90
19365;DHT22;9818;48.382;10.850;2023-07-13T02:58:27;18.80;99.90
19365;DHT22;9818;48.382;10.850;2023-07-13T03:00:57;18.80;99.90
19365;DHT22;9818;48.382;10.850;2023-07-13T03:03:29;18.80;99.90
19365;DHT22;9818;48.382;10.850;2023-07-13T03:05:59;18.80;99.90
19365;DHT22;9818;48.382;10.850;2023-07-13T03:08:29;18.80;99.90
19365;DHT22;9818;48.382;10.850;2023-07-13T03:11:02;18.70;99.90
19365;DHT22;9818;48.382;10.850;2023-07-13T03:13:31;18.70;99.90
19365;DHT22;9818;48.382;10.850;2023-07-13T03:16:00;18.60;99.90
19365;DHT22;9818;48.382;10.850;2023-07-13T03:18:31;18.60;99.90
19365;DHT22;9818;48.382;10.850;2023-07-13T03:21:00;18.70;99.90
19365;DHT22;9818;48.382;10.850;2023-07-13T03:23:29;18.60;99.90
19365;DHT22;9818;48.382;10.850;2023-07-13T03:26:05;18.70;99.90
19365;DHT22;9818;48.382;10.850;2023-07-13T03:28:35;18.60;99.90
19365;DHT22;9818;48.382;10.850;2023-07-13T03:31:05;18.70;99.90
19365;DHT22;9818;48.382;10.850;2023-07-13T03:33:37;18.70;99.90
19365;DHT22;9818;48.382;10.850;2023-07-13T03:36:07;18.50;99.90
19365;DHT22;9818;48.382;10.850;2023-07-13T03:38:36;18.60;99.90
19365;DHT22;9818;48.382;10.850;2023-07-13T03:41:05;18.60;99.90
19365;DHT22;9818;48.382;10.850;2023-07-13T03:43:34;18.60;99.90
19365;DHT22;9818;48.382;10.850;2023-07-13T03:46:02;18.60;99.90
19365;DHT22;9818;48.382;10.850;2023-07-13T03:48:31;18.60;99.90
19365;DHT22;9818;48.382;10.850;2023-07-13T03:51:02;18.60;99.90
19365;DHT22;9818;48.382;10.850;2023-07-13T03:53:31;18.50;99.90
19365;DHT22;9818;48.382;10.850;2023-07-13T03:56:00;18.50;99.90
19365;DHT22;9818;48.382;10.850;2023-07-13T03:58:32;18.40;99.90
19365;DHT22;9818;48.382;10.850;2023-07-13T04:01:02;18.50;99.90
19365;DHT22;9818;48.382;10.850;2023-07-13T04:03:32;18.50;99.90
19365;DHT22;9818;48.382;10.850;2023-07-13T04:06:05;18.50;99.90
19365;DHT22;9818;48.382;10.850;2023-07-13T04:08:36;18.50;99.90
19365;DHT22;9818;48.382;10.850;2023-07-13T04:11:06;18.50;99.90
19365;DHT22;9818;48.382;10.850;2023-07-13T04:13:35;18.40;99.90
19365;DHT22;9818;48.382;10.850;2023-07-13T04:16:04;18.40;99.90
19365;DHT22;9818;48.382;10.850;2023-07-13T04:18:33;18.30;99.90
19365;DHT22;9818;48.382;10.850;2023-07-13T04:21:04;18.30;99.90
19365;DHT22;9818;48.382;10.850;2023-07-13T04:23:32;18.30;99.90
19365;DHT22;9818;48.382;10.850;2023-07-13T04:26:01;18.40;99.90
19365;DHT22;9818;48.382;10.850;2023-07-13T04:28:30;18.40;99.90
19365;DHT22;9818;48.382;10.850;2023-07-13T04:30:58;18.40;99.90
19365;DHT22;9818;48.382;10.850;2023-07-13T04:33:27;18.40;99.90
19365;DHT22;9818;48.382;10.850;2023-07-13T04:35:57;18.30;99.90
19365;DHT22;9818;48.382;10.850;2023-07-13T04:38:31;18.40;99.90
19365;DHT22;9818;48.382;10.850;2023-07-13T04:41:01;18.30;99.90
19365;DHT22;9818;48.382;10.850;2023-07-13T04:43:32;18.40;99.90
19365;DHT22;9818;48.382;10.850;2023-07-13T04:46:03;18.40;99.90
19365;DHT22;9818;48.382;10.850;2023-07-13T04:48:33;18.30;99.90
19365;DHT22;9818;48.382;10.850;2023-07-13T04:51:02;18.30;99.90
19365;DHT22;9818;48.382;10.850;2023-07-13T04:53:34;18.30;99.90
19365;DHT22;9818;48.382;10.850;2023-07-13T04:56:03;18.30;99.90
19365;DHT22;9818;48.382;10.850;2023-07-13T04:58:33;18.30;99.90
19365;DHT22;9818;48.382;10.850;2023-07-13T05:01:03;18.30;99.90
19365;DHT22;9818;48.382;10.850;2023-07-13T05:03:33;18.20;99.90
19365;DHT22;9818;48.382;10.850;2023-07-13T05:06:04;18.20;99.90
19365;DHT22;9818;48.382;10.850;2023-07-13T05:08:35;18.20;99.90
19365;DHT22;9818;48.382;10.850;2023-07-13T05:11:05;18.40;99.90
19365;DHT22;9818;48.382;10.850;2023-07-13T05:13:34;18.40;99.90
19365;DHT22;9818;48.382;10.850;2023-07-13T05:16:06;18.40;99.90
19365;DHT22;9818;48.382;10.850;2023-07-13T05:18:35;18.40;99.90
19365;DHT22;9818;48.382;10.850;2023-07-13T05:21:06;18.50;99.90
19365;DHT22;9818;48.382;10.850;2023-07-13T05:23:37;18.50;99.90
19365;DHT22;9818;48.382;10.850;2023-07-13T05:26:07;18.60;99.90
19365;DHT22;9818;48.382;10.850;2023-07-13T05:28:36;18.60;99.90
19365;DHT22;9818;48.382;10.850;2023-07-13T05:31:06;18.60;99.90
19365;DHT22;9818;48.382;10.850;2023-07-13T05:33:35;18.60;99.90
19365;DHT22;9818;48.382;10.850;2023-07-13T05:36:04;18.70;99.90
19365;DHT22;9818;48.382;10.850;2023-07-13T05:38:33;18.60;99.90
19365;DHT22;9818;48.382;10.850;2023-07-13T05:41:04;18.70;99.90
19365;DHT22;9818;48.382;10.850;2023-07-13T05:43:33;18.80;99.90
19365;DHT22;9818;48.382;10.850;2023-07-13T05:46:03;18.80;99.90
19365;DHT22;9818;48.382;10.850;2023-07-13T05:48:31;18.90;99.90
19365;DHT22;9818;48.382;10.850;2023-07-13T05:51:01;18.90;99.90
19365;DHT22;9818;48.382;10.850;2023-07-13T05:53:29;18.80;99.90
19365;DHT22;9818;48.382;10.850;2023-07-13T05:55:58;18.80;99.90
19365;DHT22;9818;48.382;10.850;2023-07-13T05:58:29;18.80;99.90
19365;DHT22;9818;48.382;10.850;2023-07-13T06:01:00;18.80;99.90
19365;DHT22;9818;48.382;10.850;2023-07-13T06:03:29;18.80;99.90
19365;DHT22;9818;48.382;10.850;2023-07-13T06:05:58;18.80;99.90
19365;DHT22;9818;48.382;10.850;2023-07-13T06:08:28;18.70;99.90
19365;DHT22;9818;48.382;10.850;2023-07-13T06:11:02;18.70;99.90
19365;DHT22;9818;48.382;10.850;2023-07-13T06:13:34;18.80;99.90
19365;DHT22;9818;48.382;10.850;2023-07-13T06:16:03;18.70;99.90
19365;DHT22;9818;48.382;10.850;2023-07-13T06:18:33;18.70;99.90
19365;DHT22;9818;48.382;10.850;2023-07-13T06:21:06;18.80;99.90
19365;DHT22;9818;48.382;10.850;2023-07-13T06:23:35;18.90;99.90
19365;DHT22;9818;48.382;10.850;2023-07-13T06:26:04;18.80;99.90
19365;DHT22;9818;48.382;10.850;2023-07-13T06:28:36;18.70;99.90
19365;DHT22;9818;48.382;10.850;2023-07-13T06:31:06;18.70;99.90
19365;DHT22;9818;48.382;10.850;2023-07-13T06:33:35;18.60;99.90
19365;DHT22;9818;48.382;10.850;2023-07-13T06:36:05;18.50;99.90
19365;DHT22;9818;48.382;10.850;2023-07-13T06:38:35;18.50;99.90
19365;DHT22;9818;48.382;10.850;2023-07-13T06:41:05;18.50;99.90
19365;DHT22;9818;48.382;10.850;2023-07-13T06:43:36;18.50;99.90
19365;DHT22;9818;48.382;10.850;2023-07-13T06:46:05;18.50;99.90
19365;DHT22;9818;48.382;10.850;2023-07-13T06:48:34;18.60;99.90
19365;DHT22;9818;48.382;10.850;2023-07-13T06:51:03;18.60;99.90
19365;DHT22;9818;48.382;10.850;2023-07-13T06:53:32;18.60;99.90
19365;DHT22;9818;48.382;10.850;2023-07-13T06:56:00;18.60;99.90
19365;DHT22;9818;48.382;10.850;2023-07-13T06:58:29;18.70;99.90
19365;DHT22;9818;48.382;10.850;2023-07-13T07:01:00;18.80;99.90
19365;DHT22;9818;48.382;10.850;2023-07-13T07:03:29;18.80;99.90
19365;DHT22;9818;48.382;10.850;2023-07-13T07:06:00;18.80;99.90
19365;DHT22;9818;48.382;10.850;2023-07-13T07:08:29;18.80;99.90
19365;DHT22;9818;48.382;10.850;2023-07-13T07:10:57;18.80;96.10
19365;DHT22;9818;48.382;10.850;2023-07-13T07:13:26;18.90;94.30
19365;DHT22;9818;48.382;10.850;2023-07-13T07:15:56;19.00;94.90
19365;DHT22;9818;48.382;10.850;2023-07-13T07:18:28;19.00;27.80
19365;DHT22;9818;48.382;10.850;2023-07-13T07:20:57;19.00;64.50
19365;DHT22;9818;48.382;10.850;2023-07-13T07:23:25;19.10;31.50
19365;DHT22;9818;48.382;10.850;2023-07-13T07:25:54;19.30;6.30
19365;DHT22;9818;48.382;10.850;2023-07-13T07:28:23;19.50;71.30
19365;DHT22;9818;48.382;10.850;2023-07-13T07:30:55;19.70;93.40
19365;DHT22;9818;48.382;10.850;2023-07-13T07:33:24;19.70;1.00
19365;DHT22;9818;48.382;10.850;2023-07-13T07:35:55;19.70;1.00
19365;DHT22;9818;48.382;10.850;2023-07-13T07:38:24;19.70;1.00
19365;DHT22;9818;48.382;10.850;2023-07-13T07:40:54;19.80;1.00
19365;DHT22;9818;48.382;10.850;2023-07-13T07:43:22;19.80;1.00
19365;DHT22;9818;48.382;10.850;2023-07-13T07:45:51;19.90;1.00
19365;DHT22;9818;48.382;10.850;2023-07-13T07:48:19;20.20;19.50
19365;DHT22;9818;48.382;10.850;2023-07-13T07:50:48;20.40;1.00
19365;DHT22;9818;48.382;10.850;2023-07-13T07:53:19;20.50;1.00
19365;DHT22;9818;48.382;10.850;2023-07-13T07:55:48;20.30;1.00
19365;DHT22;9818;48.382;10.850;2023-07-13T07:58:17;20.50;1.00
19365;DHT22;9818;48.382;10.850;2023-07-13T08:00:45;20.70;1.00
19365;DHT22;9818;48.382;10.850;2023-07-13T08:03:14;20.80;1.00
19365;DHT22;9818;48.382;10.850;2023-07-13T08:05:43;20.70;1.00
19365;DHT22;9818;48.382;10.850;2023-07-13T08:08:11;20.60;1.00
19365;DHT22;9818;48.382;10.850;2023-07-13T08:10:42;20.80;1.00
19365;DHT22;9818;48.382;10.850;2023-07-13T08:13:11;20.80;1.00
19365;DHT22;9818;48.382;10.850;2023-07-13T08:15:40;20.90;1.00
19365;DHT22;9818;48.382;10.850;2023-07-13T08:18:08;20.80;1.00
19365;DHT22;9818;48.382;10.850;2023-07-13T08:20:37;20.70;1.00
19365;DHT22;9818;48.382;10.850;2023-07-13T08:23:06;20.70;99.90
19365;DHT22;9818;48.382;10.850;2023-07-13T08:25:35;20.60;1.00
19365;DHT22;9818;48.382;10.850;2023-07-13T08:28:06;20.60;99.90
19365;DHT22;9818;48.382;10.850;2023-07-13T08:30:35;20.50;99.90
19365;DHT22;9818;48.382;10.850;2023-07-13T08:33:04;20.70;1.00
19365;DHT22;9818;48.382;10.850;2023-07-13T08:35:33;20.90;1.00
19365;DHT22;9818;48.382;10.850;2023-07-13T08:38:02;21.30;99.90
19365;DHT22;9818;48.382;10.850;2023-07-13T08:40:30;21.70;1.00
19365;DHT22;9818;48.382;10.850;2023-07-13T08:42:59;22.00;99.90
19365;DHT22;9818;48.382;10.850;2023-07-13T08:45:42;22.00;99.90
19365;DHT22;9818;48.382;10.850;2023-07-13T08:48:14;21.90;1.00
19365;DHT22;9818;48.382;10.850;2023-07-13T08:50:49;22.10;1.00
19365;DHT22;9818;48.382;10.850;2023-07-13T08:53:19;22.30;99.90
19365;DHT22;9818;48.382;10.850;2023-07-13T08:55:48;22.20;99.90
19365;DHT22;9818;48.382;10.850;2023-07-13T08:58:20;22.00;51.60
19365;DHT22;9818;48.382;10.850;2023-07-13T09:01:04;21.90;99.90
19365;DHT22;9818;48.382;10.850;2023-07-13T09:03:41;21.80;1.00
19365;DHT22;9818;48.382;10.850;2023-07-13T09:06:14;21.90;99.90
19365;DHT22;9818;48.382;10.850;2023-07-13T09:08:53;22.00;1.00
19365;DHT22;9818;48.382;10.850;2023-07-13T09:11:36;21.90;1.00
19365;DHT22;9818;48.382;10.850;2023-07-13T09:14:33;22.00;1.00
19365;DHT22;9818;48.382;10.850;2023-07-13T09:17:12;22.00;1.00
19365;DHT22;9818;48.382;10.850;2023-07-13T09:19:42;22.30;96.00
19365;DHT22;9818;48.382;10.850;2023-07-13T09:22:16;22.40;1.00
19365;DHT22;9818;48.382;10.850;2023-07-13T09:24:54;22.40;1.00
19365;DHT22;9818;48.382;10.850;2023-07-13T09:27:29;22.40;99.90
19365;DHT22;9818;48.382;10.850;2023-07-13T09:30:04;22.70;1.00
19365;DHT22;9818;48.382;10.850;2023-07-13T09:32:45;22.70;99.90
19365;DHT22;9818;48.382;10.850;2023-07-13T09:35:18;22.50;1.00
19365;DHT22;9818;48.382;10.850;2023-07-13T09:37:47;22.60;99.90
19365;DHT22;9818;48.382;10.850;2023-07-13T09:40:24;22.60;1.00
19365;DHT22;9818;48.382;10.850;2023-07-13T09:42:55;22.40;1.00
19365;DHT22;9818;48.382;10.850;2023-07-13T09:45:28;22.70;1.00
19365;DHT22;9818;48.382;10.850;2023-07-13T09:48:05;22.80;27.90
19365;DHT22;9818;48.382;10.850;2023-07-13T09:50:34;22.80;64.10
19365;DHT22;9818;48.382;10.850;2023-07-13T09:53:03;22.70;1.00
19365;DHT22;9818;48.382;10.850;2023-07-13T09:55:34;22.50;1.00
19365;DHT22;9818;48.382;10.850;2023-07-13T09:58:04;22.50;99.90
19365;DHT22;9818;48.382;10.850;2023-07-13T10:00:35;22.70;1.00
19365;DHT22;9818;48.382;10.850;2023-07-13T10:03:17;22.90;1.00
19365;DHT22;9818;48.382;10.850;2023-07-13T10:05:49;23.10;1.00
19365;DHT22;9818;48.382;10.850;2023-07-13T10:08:24;23.00;99.90
19365;DHT22;9818;48.382;10.850;2023-07-13T10:10:57;23.00;1.00
19365;DHT22;9818;48.382;10.850;2023-07-13T10:13:32;23.30;99.90
19365;DHT22;9818;48.382;10.850;2023-07-13T10:16:03;23.70;1.00
19365;DHT22;9818;48.382;10.850;2023-07-13T10:18:39;24.30;99.90
19365;DHT22;9818;48.382;10.850;2023-07-13T10:21:13;25.40;1.00
19365;DHT22;9818;48.382;10.850;2023-07-13T10:23:43;26.10;1.00
19365;DHT22;9818;48.382;10.850;2023-07-13T10:26:19;25.40;11.40
19365;DHT22;9818;48.382;10.850;2023-07-13T10:28:54;25.50;99.90
19365;DHT22;9818;48.382;10.850;2023-07-13T10:31:24;25.60;25.90
19365;DHT22;9818;48.382;10.850;2023-07-13T10:33:56;25.00;99.90
19365;DHT22;9818;48.382;10.850;2023-07-13T10:36:31;24.60;99.90
19365;DHT22;9818;48.382;10.850;2023-07-13T10:39:03;24.50;99.90
19365;DHT22;9818;48.382;10.850;2023-07-13T10:41:36;24.30;99.90
19365;DHT22;9818;48.382;10.850;2023-07-13T10:44:12;25.00;99.90
19365;DHT22;9818;48.382;10.850;2023-07-13T10:46:44;25.70;99.90
19365;DHT22;9818;48.382;10.850;2023-07-13T10:49:17;25.80;99.90
19365;DHT22;9818;48.382;10.850;2023-07-13T10:51:46;25.90;1.00
19365;DHT22;9818;48.382;10.850;2023-07-13T10:54:19;25.80;99.90
19365;DHT22;9818;48.382;10.850;2023-07-13T10:56:54;26.40;99.90
19365;DHT22;9818;48.382;10.850;2023-07-13T10:59:35;26.70;1.00
19365;DHT22;9818;48.382;10.850;2023-07-13T11:02:22;27.30;34.10
19365;DHT22;9818;48.382;10.850;2023-07-13T11:04:55;27.90;1.00
19365;DHT22;9818;48.382;10.850;2023-07-13T11:07:26;27.90;1.00
19365;DHT22;9818;48.382;10.850;2023-07-13T11:09:58;28.30;1.00
19365;DHT22;9818;48.382;10.850;2023-07-13T11:12:48;28.80;1.00
19365;DHT22;9818;48.382;10.850;2023-07-13T11:15:32;29.40;1.00
19365;DHT22;9818;48.382;10.850;2023-07-13T11:18:04;29.10;1.00
19365;DHT22;9818;48.382;10.850;2023-07-13T11:20:44;28.30;1.00
19365;DHT22;9818;48.382;10.850;2023-07-13T11:23:30;28.50;1.00
19365;DHT22;9818;48.382;10.850;2023-07-13T11:26:00;29.20;1.00
19365;DHT22;9818;48.382;10.850;2023-07-13T11:28:31;29.70;1.00
19365;DHT22;9818;48.382;10.850;2023-07-13T11:31:13;30.20;1.00
19365;DHT22;9818;48.382;10.850;2023-07-13T11:33:56;29.60;1.00
19365;DHT22;9818;48.382;10.850;2023-07-13T11:36:36;28.40;1.00
19365;DHT22;9818;48.382;10.850;2023-07-13T11:39:16;28.40;1.00
19365;DHT22;9818;48.382;10.850;2023-07-13T11:41:50;28.80;1.00
19365;DHT22;9818;48.382;10.850;2023-07-13T11:44:22;28.40;1.00
19365;DHT22;9818;48.382;10.850;2023-07-13T11:46:53;28.90;1.00
19365;DHT22;9818;48.382;10.850;2023-07-13T11:49:23;28.60;1.00
19365;DHT22;9818;48.382;10.850;2023-07-13T11:51:56;27.10;1.00
19365;DHT22;9818;48.382;10.850;2023-07-13T11:54:28;26.80;1.00
19365;DHT22;9818;48.382;10.850;2023-07-13T11:56:59;27.40;1.00
19365;DHT22;9818;48.382;10.850;2023-07-13T11:59:32;27.70;1.00
19365;DHT22;9818;48.382;10.850;2023-07-13T12:02:01;27.60;1.00
19365;DHT22;9818;48.382;10.850;2023-07-13T12:04:32;27.40;1.00
19365;DHT22;9818;48.382;10.850;2023-07-13T12:07:14;27.10;1.00
19365;DHT22;9818;48.382;10.850;2023-07-13T12:09:43;27.20;1.00
19365;DHT22;9818;48.382;10.850;2023-07-13T12:12:13;26.70;1.00
19365;DHT22;9818;48.382;10.850;2023-07-13T12:14:42;26.70;7.60
19365;DHT22;9818;48.382;10.850;2023-07-13T12:17:18;26.90;1.00
19365;DHT22;9818;48.382;10.850;2023-07-13T12:19:48;27.00;1.00
19365;DHT22;9818;48.382;10.850;2023-07-13T12:22:20;27.00;1.00
19365;DHT22;9818;48.382;10.850;2023-07-13T12:24:49;26.60;1.00
19365;DHT22;9818;48.382;10.850;2023-07-13T12:27:22;25.60;1.00
19365;DHT22;9818;48.382;10.850;2023-07-13T12:29:52;26.10;1.00
19365;DHT22;9818;48.382;10.850;2023-07-13T12:32:26;27.00;1.00
19365;DHT22;9818;48.382;10.850;2023-07-13T12:35:12;27.80;1.00
19365;DHT22;9818;48.382;10.850;2023-07-13T12:37:45;28.20;1.00
19365;DHT22;9818;48.382;10.850;2023-07-13T12:40:15;28.10;1.00
19365;DHT22;9818;48.382;10.850;2023-07-13T12:42:46;28.40;1.00
19365;DHT22;9818;48.382;10.850;2023-07-13T12:45:18;28.90;1.00
19365;DHT22;9818;48.382;10.850;2023-07-13T12:47:49;29.80;1.00
19365;DHT22;9818;48.382;10.850;2023-07-13T12:50:22;30.00;1.00
19365;DHT22;9818;48.382;10.850;2023-07-13T12:52:56;29.50;1.00
19365;DHT22;9818;48.382;10.850;2023-07-13T12:55:25;29.00;1.00
19365;DHT22;9818;48.382;10.850;2023-07-13T12:57:58;29.40;1.00
19365;DHT22;9818;48.382;10.850;2023-07-13T13:00:31;29.50;1.00
19365;DHT22;9818;48.382;10.850;2023-07-13T13:03:05;28.40;1.00
19365;DHT22;9818;48.382;10.850;2023-07-13T13:05:34;27.80;1.00
19365;DHT22;9818;48.382;10.850;2023-07-13T13:08:08;27.90;1.00
19365;DHT22;9818;48.382;10.850;2023-07-13T13:10:39;28.40;1.00
19365;DHT22;9818;48.382;10.850;2023-07-13T13:13:08;28.60;1.00
19365;DHT22;9818;48.382;10.850;2023-07-13T13:15:37;27.80;1.00
19365;DHT22;9818;48.382;10.850;2023-07-13T13:18:15;28.00;1.00
19365;DHT22;9818;48.382;10.850;2023-07-13T13:20:44;28.40;1.00
19365;DHT22;9818;48.382;10.850;2023-07-13T13:23:18;28.70;1.00
19365;DHT22;9818;48.382;10.850;2023-07-13T13:25:50;28.40;1.00
19365;DHT22;9818;48.382;10.850;2023-07-13T13:28:20;29.00;1.00
19365;DHT22;9818;48.382;10.850;2023-07-13T13:30:50;29.30;1.00
19365;DHT22;9818;48.382;10.850;2023-07-13T13:33:20;29.90;1.00
19365;DHT22;9818;48.382;10.850;2023-07-13T13:35:49;29.60;1.00
19365;DHT22;9818;48.382;10.850;2023-07-13T13:38:25;29.20;1.00
19365;DHT22;9818;48.382;10.850;2023-07-13T13:40:53;29.90;1.00
19365;DHT22;9818;48.382;10.850;2023-07-13T13:43:23;30.40;1.00
19365;DHT22;9818;48.382;10.850;2023-07-13T13:45:57;30.30;1.00
19365;DHT22;9818;48.382;10.850;2023-07-13T13:48:31;30.80;1.00
19365;DHT22;9818;48.382;10.850;2023-07-13T13:51:01;30.40;1.00
19365;DHT22;9818;48.382;10.850;2023-07-13T13:53:35;29.80;1.00
19365;DHT22;9818;48.382;10.850;2023-07-13T13:56:04;29.60;1.00
19365;DHT22;9818;48.382;10.850;2023-07-13T13:58:33;29.30;1.00
19365;DHT22;9818;48.382;10.850;2023-07-13T14:01:02;29.40;1.00
19365;DHT22;9818;48.382;10.850;2023-07-13T14:03:34;29.30;1.00
19365;DHT22;9818;48.382;10.850;2023-07-13T14:06:03;29.00;1.00
19365;DHT22;9818;48.382;10.850;2023-07-13T14:08:32;29.30;1.00
19365;DHT22;9818;48.382;10.850;2023-07-13T14:11:04;29.80;1.00
19365;DHT22;9818;48.382;10.850;2023-07-13T14:13:36;30.30;1.00
19365;DHT22;9818;48.382;10.850;2023-07-13T14:16:11;29.80;1.00
19365;DHT22;9818;48.382;10.850;2023-07-13T14:18:40;29.80;1.00
19365;DHT22;9818;48.382;10.850;2023-07-13T14:21:12;30.00;1.00
19365;DHT22;9818;48.382;10.850;2023-07-13T14:23:45;29.00;1.00
19365;DHT22;9818;48.382;10.850;2023-07-13T14:26:18;29.30;1.00
19365;DHT22;9818;48.382;10.850;2023-07-13T14:28:49;29.10;1.00
19365;DHT22;9818;48.382;10.850;2023-07-13T14:31:19;29.10;1.00
19365;DHT22;9818;48.382;10.850;2023-07-13T14:33:48;29.40;1.00
19365;DHT22;9818;48.382;10.850;2023-07-13T14:36:26;29.70;1.00
19365;DHT22;9818;48.382;10.850;2023-07-13T14:38:56;30.10;1.00
19365;DHT22;9818;48.382;10.850;2023-07-13T14:41:27;30.00;1.00
19365;DHT22;9818;48.382;10.850;2023-07-13T14:43:56;30.20;1.00
19365;DHT22;9818;48.382;10.850;2023-07-13T14:46:29;30.20;1.00
19365;DHT22;9818;48.382;10.850;2023-07-13T14:49:02;30.30;1.00
19365;DHT22;9818;48.382;10.850;2023-07-13T14:51:31;29.70;1.00
19365;DHT22;9818;48.382;10.850;2023-07-13T14:54:05;29.60;1.00
19365;DHT22;9818;48.382;10.850;2023-07-13T14:56:37;29.40;1.00
19365;DHT22;9818;48.382;10.850;2023-07-13T14:59:05;29.70;1.00
19365;DHT22;9818;48.382;10.850;2023-07-13T15:01:35;29.70;1.00
19365;DHT22;9818;48.382;10.850;2023-07-13T15:04:04;30.10;1.00
19365;DHT22;9818;48.382;10.850;2023-07-13T15:09:18;30.10;1.00
19365;DHT22;9818;48.382;10.850;2023-07-13T15:11:50;30.50;1.00
19365;DHT22;9818;48.382;10.850;2023-07-13T15:14:19;30.30;1.00
19365;DHT22;9818;48.382;10.850;2023-07-13T15:16:49;29.90;1.00
19365;DHT22;9818;48.382;10.850;2023-07-13T15:19:20;30.10;1.00
19365;DHT22;9818;48.382;10.850;2023-07-13T15:21:50;30.00;1.00
19365;DHT22;9818;48.382;10.850;2023-07-13T15:24:19;29.90;1.00
19365;DHT22;9818;48.382;10.850;2023-07-13T15:26:51;29.90;1.00
19365;DHT22;9818;48.382;10.850;2023-07-13T15:29:20;30.10;1.00
19365;DHT22;9818;48.382;10.850;2023-07-13T15:31:49;30.00;1.00
19365;DHT22;9818;48.382;10.850;2023-07-13T15:34:23;29.80;1.00
19365;DHT22;9818;48.382;10.850;2023-07-13T15:36:53;30.00;1.00
19365;DHT22;9818;48.382;10.850;2023-07-13T15:39:21;29.40;1.00
19365;DHT22;9818;48.382;10.850;2023-07-13T15:41:53;29.10;1.00
19365;DHT22;9818;48.382;10.850;2023-07-13T15:44:28;28.90;1.00
19365;DHT22;9818;48.382;10.850;2023-07-13T15:46:58;28.60;1.00
19365;DHT22;9818;48.382;10.850;2023-07-13T15:49:28;28.60;1.00
19365;DHT22;9818;48.382;10.850;2023-07-13T15:51:58;28.70;1.00
19365;DHT22;9818;48.382;10.850;2023-07-13T15:54:26;28.50;1.00
19365;DHT22;9818;48.382;10.850;2023-07-13T15:57:01;28.00;1.00
19365;DHT22;9818;48.382;10.850;2023-07-13T15:59:32;27.80;1.00
19365;DHT22;9818;48.382;10.850;2023-07-13T16:02:01;27.60;1.00
19365;DHT22;9818;48.382;10.850;2023-07-13T16:04:33;27.00;1.00